createdAt,value
2019-05-11T00:00:09.296Z,2.63
2019-05-11T00:02:35.829Z,3.30
2019-05-11T00:05:02.370Z,3.10
2019-05-11T00:07:30.080Z,3.33
2019-05-11T00:09:58.396Z,3.50
2019-05-11T00:12:25.029Z,3.73
2019-05-11T00:14:51.563Z,3.03
2019-05-11T00:17:18.033Z,3.60
2019-05-11T00:19:44.613Z,3.53
2019-05-11T00:22:11.111Z,3.17
2019-05-11T00:24:37.639Z,3.07
2019-05-11T00:27:05.507Z,3.37
2019-05-11T00:29:32.080Z,3.30
2019-05-11T00:31:58.836Z,3.20
2019-05-11T00:34:25.577Z,3.23
2019-05-11T00:36:52.068Z,3.67
2019-05-11T00:39:18.842Z,3.73
2019-05-11T00:41:45.351Z,3.10
2019-05-11T00:44:11.958Z,3.47
2019-05-11T00:46:38.501Z,3.47
2019-05-11T00:49:05.101Z,3.50
2019-05-11T00:51:31.863Z,3.57
2019-05-11T00:53:58.364Z,3.60
2019-05-11T00:56:24.917Z,3.33
2019-05-11T00:58:51.442Z,3.20
2019-05-11T01:01:17.934Z,3.37
2019-05-11T01:03:44.499Z,3.30
2019-05-11T01:06:11.025Z,4.00
2019-05-11T01:08:38.551Z,3.57
2019-05-11T01:11:05.425Z,4.00
2019-05-11T01:13:31.940Z,3.57
2019-05-11T01:15:58.840Z,3.60
2019-05-11T01:18:25.663Z,3.50
2019-05-11T01:20:52.162Z,3.20
2019-05-11T01:23:18.651Z,3.07
2019-05-11T01:25:45.177Z,3.57
2019-05-11T01:28:11.654Z,2.70
2019-05-11T01:30:38.840Z,3.63
2019-05-11T01:33:05.554Z,3.50
2019-05-11T01:35:32.350Z,3.07
2019-05-11T01:37:59.094Z,3.70
2019-05-11T01:40:25.896Z,2.90
2019-05-11T01:42:52.483Z,3.53
2019-05-11T01:45:18.953Z,3.20
2019-05-11T01:47:45.467Z,3.30
2019-05-11T01:50:12.255Z,3.80
2019-05-11T01:52:38.933Z,3.30
2019-05-11T01:55:05.571Z,3.00
2019-05-11T01:57:32.095Z,3.40
2019-05-11T01:59:58.750Z,3.40
2019-05-11T02:02:25.306Z,3.37
2019-05-11T02:05:11.481Z,3.30
2019-05-11T02:07:37.970Z,3.10
2019-05-11T02:10:04.831Z,3.50
2019-05-11T02:12:31.378Z,3.57
2019-05-11T02:14:57.879Z,2.73
2019-05-11T02:17:24.978Z,3.10
2019-05-11T02:19:51.461Z,3.70
2019-05-11T02:22:18.048Z,2.80
2019-05-11T02:24:44.541Z,3.77
2019-05-11T02:27:11.348Z,3.57
2019-05-11T02:29:41.195Z,3.17
2019-05-11T02:32:06.280Z,3.40
2019-05-11T02:34:32.754Z,3.40
2019-05-11T02:36:59.316Z,3.63
2019-05-11T02:39:26.154Z,3.40
2019-05-11T02:41:52.921Z,3.00
2019-05-11T02:44:19.910Z,3.20
2019-05-11T02:46:46.435Z,3.10
2019-05-11T02:49:13.429Z,3.10
2019-05-11T02:51:40.045Z,3.13
2019-05-11T02:54:08.412Z,3.43
2019-05-11T02:56:34.887Z,3.50
2019-05-11T03:01:33.703Z,4.00
2019-05-11T03:04:00.216Z,3.50
2019-05-11T03:06:26.742Z,3.33
2019-05-11T03:08:53.240Z,3.77
2019-05-11T03:11:19.766Z,4.00
2019-05-11T03:13:48.270Z,3.47
2019-05-11T03:16:14.737Z,3.73
2019-05-11T03:18:41.278Z,4.50
2019-05-11T03:21:07.774Z,4.03
2019-05-11T03:23:35.335Z,4.33
2019-05-11T03:26:15.270Z,4.83
2019-05-11T03:28:41.950Z,3.53
2019-05-11T03:31:08.600Z,5.10
2019-05-11T03:33:35.865Z,5.03
2019-05-11T03:36:02.454Z,5.30
2019-05-11T03:38:29.229Z,5.37
2019-05-11T03:41:04.776Z,6.77
2019-05-11T03:43:31.315Z,6.90
2019-05-11T03:45:57.868Z,6.67
2019-05-11T03:48:24.383Z,7.30
2019-05-11T03:50:51.238Z,6.60
2019-05-11T03:53:17.825Z,6.90
2019-05-11T03:55:44.736Z,7.83
2019-05-11T03:58:11.288Z,7.17
2019-05-11T04:00:49.948Z,7.50
2019-05-11T04:03:16.569Z,7.10
2019-05-11T04:05:43.575Z,7.00
2019-05-11T04:08:13.437Z,7.00
2019-05-11T04:13:17.324Z,7.47
2019-05-11T04:15:44.167Z,7.50
2019-05-11T04:18:13.693Z,7.67
2019-05-11T04:20:40.214Z,7.77
2019-05-11T04:23:07.361Z,8.33
2019-05-11T04:25:34.031Z,7.63
2019-05-11T04:28:12.625Z,8.07
2019-05-11T04:30:41.946Z,8.50
2019-05-11T04:33:08.477Z,7.97
2019-05-11T04:35:35.159Z,9.93
2019-05-11T04:38:01.662Z,8.40
2019-05-11T04:40:28.248Z,8.73
2019-05-11T04:42:56.220Z,8.50
2019-05-11T04:45:22.896Z,9.57
2019-05-11T04:47:49.443Z,8.73
2019-05-11T04:50:16.124Z,8.97
2019-05-11T04:53:00.563Z,8.80
2019-05-11T04:55:27.134Z,8.47
2019-05-11T04:57:53.636Z,8.30
2019-05-11T05:00:24.716Z,9.57
2019-05-11T05:02:51.224Z,9.80
2019-05-11T05:05:18.860Z,8.47
2019-05-11T05:07:48.899Z,10.50
2019-05-11T05:10:19.822Z,10.57
2019-05-11T05:12:50.715Z,10.60
2019-05-11T05:15:16.949Z,9.47
2019-05-11T05:17:43.455Z,10.53
2019-05-11T05:20:10.303Z,9.20
2019-05-11T05:22:37.161Z,9.03
2019-05-11T05:25:04.037Z,10.03
2019-05-11T05:27:33.422Z,9.67
2019-05-11T05:30:06.631Z,8.90
2019-05-11T05:32:33.716Z,9.47
2019-05-11T05:35:00.424Z,10.53
2019-05-11T05:37:27.544Z,9.90
2019-05-11T05:39:54.053Z,9.30
2019-05-11T05:42:25.527Z,9.23
2019-05-11T05:44:52.051Z,9.43
2019-05-11T05:47:18.836Z,8.40
2019-05-11T05:49:45.306Z,9.80
2019-05-11T05:52:12.050Z,8.93
2019-05-11T05:54:38.520Z,10.20
2019-05-11T05:57:05.034Z,10.20
2019-05-11T05:59:31.576Z,10.63
2019-05-11T06:01:59.303Z,11.50
2019-05-11T06:04:25.877Z,9.30
2019-05-11T06:06:52.387Z,9.47
2019-05-11T06:09:18.939Z,9.73
2019-05-11T06:11:45.541Z,8.90
2019-05-11T06:14:12.116Z,7.57
2019-05-11T06:16:39.119Z,10.17
2019-05-11T06:19:05.986Z,9.43
2019-05-11T06:21:32.694Z,9.03
2019-05-11T06:24:05.954Z,9.13
2019-05-11T06:26:28.080Z,8.73
2019-05-11T06:28:57.699Z,8.93
2019-05-11T06:31:24.275Z,9.20
2019-05-11T06:33:50.848Z,8.93
2019-05-11T06:36:17.374Z,9.13
2019-05-11T06:38:43.896Z,8.13
2019-05-11T06:41:10.947Z,8.13
2019-05-11T06:43:41.729Z,8.77
2019-05-11T06:46:11.875Z,9.23
2019-05-11T06:48:39.379Z,7.43
2019-05-11T06:51:06.634Z,8.03
2019-05-11T06:53:33.143Z,7.87
2019-05-11T06:55:59.762Z,7.87
2019-05-11T06:58:26.584Z,8.07
2019-05-11T07:00:53.162Z,7.47
2019-05-11T07:03:19.715Z,8.00
2019-05-11T07:05:46.305Z,8.53
2019-05-11T07:08:12.827Z,7.43
2019-05-11T07:10:40.464Z,8.20
2019-05-11T07:13:07.141Z,7.90
2019-05-11T07:15:49.212Z,9.17
2019-05-11T07:18:16.240Z,8.63
2019-05-11T07:20:50.338Z,8.50
2019-05-11T07:23:20.603Z,8.03
2019-05-11T07:25:47.619Z,7.67
2019-05-11T07:28:14.595Z,8.20
2019-05-11T07:30:41.087Z,7.70
2019-05-11T07:33:08.148Z,7.53
2019-05-11T07:35:34.712Z,6.40
2019-05-11T07:38:03.175Z,6.90
2019-05-11T07:40:29.934Z,7.23
2019-05-11T07:42:58.982Z,7.87
2019-05-11T07:45:28.168Z,7.83
2019-05-11T07:47:56.115Z,7.10
2019-05-11T07:50:22.615Z,7.57
2019-05-11T07:52:50.265Z,8.43
2019-05-11T07:55:19.047Z,8.00
2019-05-11T07:57:48.149Z,8.87
2019-05-11T08:00:15.376Z,9.70
2019-05-11T08:02:41.929Z,11.30
2019-05-11T08:05:09.005Z,12.33
2019-05-11T08:07:37.871Z,12.13
2019-05-11T08:10:04.952Z,13.67
2019-05-11T08:12:32.891Z,11.70
2019-05-11T08:15:08.693Z,12.23
2019-05-11T08:17:28.603Z,12.53
2019-05-11T08:19:55.258Z,11.73
2019-05-11T08:22:22.987Z,10.53
2019-05-11T08:24:58.559Z,9.90
2019-05-11T08:27:25.749Z,10.87
2019-05-11T08:29:52.485Z,10.10
2019-05-11T08:32:18.984Z,10.23
2019-05-11T08:34:45.511Z,10.20
2019-05-11T08:37:12.015Z,10.27
2019-05-11T08:39:38.471Z,10.63
2019-05-11T08:42:05.068Z,10.60
2019-05-11T08:44:31.566Z,10.80
2019-05-11T08:46:58.325Z,11.40
2019-05-11T08:49:25.388Z,11.57
2019-05-11T08:51:52.981Z,11.83
2019-05-11T08:54:19.560Z,12.90
2019-05-11T08:56:48.494Z,10.13
2019-05-11T08:59:14.443Z,10.40
2019-05-11T09:01:40.909Z,10.60
2019-05-11T09:04:08.895Z,11.17
2019-05-11T09:06:37.649Z,10.40
2019-05-11T09:09:04.595Z,10.80
2019-05-11T09:11:32.386Z,11.13
2019-05-11T09:13:59.948Z,11.03
2019-05-11T09:16:28.915Z,12.07
2019-05-11T09:18:57.974Z,10.07
2019-05-11T09:21:24.383Z,11.03
2019-05-11T09:23:50.926Z,11.07
2019-05-11T09:26:19.496Z,8.70
2019-05-11T09:28:48.046Z,8.30
2019-05-11T09:31:15.084Z,9.63
2019-05-11T09:33:41.781Z,7.97
2019-05-11T09:36:08.682Z,6.60
2019-05-11T09:38:35.287Z,8.07
2019-05-11T09:41:01.842Z,7.97
2019-05-11T09:43:28.518Z,6.93
2019-05-11T09:45:58.065Z,7.43
2019-05-11T09:48:24.932Z,5.83
2019-05-11T09:50:51.638Z,5.00
2019-05-11T09:53:18.668Z,4.50
2019-05-11T09:55:45.413Z,4.13
2019-05-11T09:58:15.951Z,5.10
2019-05-11T10:00:42.456Z,4.97
2019-05-11T10:03:10.280Z,5.63
2019-05-11T10:05:38.534Z,4.60
2019-05-11T10:08:07.899Z,4.67
2019-05-11T10:10:38.127Z,6.13
2019-05-11T10:13:04.888Z,6.50
2019-05-11T10:15:39.535Z,6.67
2019-05-11T10:18:18.620Z,6.67
2019-05-11T10:20:48.095Z,7.83
2019-05-11T10:23:15.223Z,8.30
2019-05-11T10:25:42.344Z,8.93
2019-05-11T10:28:09.467Z,8.67
2019-05-11T10:30:38.599Z,7.77
2019-05-11T10:33:05.329Z,7.50
2019-05-11T10:35:31.826Z,7.27
2019-05-11T10:37:58.481Z,9.57
2019-05-11T10:40:25.344Z,7.77
2019-05-11T10:42:51.828Z,7.03
2019-05-11T10:45:18.468Z,7.33
2019-05-11T10:47:58.564Z,7.87
2019-05-11T10:50:38.092Z,8.43
2019-05-11T10:53:14.599Z,8.50
2019-05-11T10:55:41.057Z,7.07
2019-05-11T10:58:11.876Z,7.27
2019-05-11T11:00:38.937Z,8.13
2019-05-11T11:03:05.600Z,7.77
2019-05-11T11:05:33.165Z,9.20
2019-05-11T11:07:59.753Z,10.73
2019-05-11T11:10:28.584Z,10.83
2019-05-11T11:12:57.791Z,12.30
2019-05-11T11:15:24.304Z,13.10
2019-05-11T11:17:50.803Z,14.37
2019-05-11T11:20:18.660Z,14.77
2019-05-11T11:22:47.890Z,15.13
2019-05-11T11:25:14.239Z,15.20
2019-05-11T11:27:53.694Z,12.50
2019-05-11T11:30:20.695Z,14.27
2019-05-11T11:32:48.418Z,9.43
2019-05-11T11:35:15.877Z,10.17
2019-05-11T11:37:43.137Z,9.83
2019-05-11T11:40:09.862Z,11.17
2019-05-11T11:42:37.711Z,11.00
2019-05-11T11:45:05.059Z,8.43
2019-05-11T11:47:31.570Z,8.67
2019-05-11T11:49:58.561Z,10.00
2019-05-11T11:52:25.009Z,7.40
2019-05-11T11:54:51.554Z,7.17
2019-05-11T11:57:18.338Z,7.50
2019-05-11T11:59:44.766Z,7.50
2019-05-11T12:02:11.366Z,9.83
2019-05-11T12:04:38.879Z,11.57
2019-05-11T12:07:05.535Z,10.07
2019-05-11T12:09:32.157Z,8.97
2019-05-11T12:11:58.598Z,8.60
2019-05-11T12:14:25.108Z,10.83
2019-05-11T12:17:04.009Z,9.70
2019-05-11T12:19:20.023Z,10.00
2019-05-11T12:21:48.372Z,10.37
2019-05-11T12:24:15.259Z,10.07
2019-05-11T12:26:41.962Z,11.83
2019-05-11T12:29:08.477Z,15.30
2019-05-11T12:31:34.930Z,16.27
2019-05-11T12:34:01.392Z,16.40
2019-05-11T12:36:28.338Z,17.40
2019-05-11T12:38:54.814Z,17.00
2019-05-11T12:41:21.313Z,17.70
2019-05-11T12:43:48.882Z,16.23
2019-05-11T12:46:18.615Z,14.97
2019-05-11T12:48:44.440Z,14.20
2019-05-11T12:51:10.951Z,14.17
2019-05-11T12:53:38.450Z,13.90
2019-05-11T12:56:07.974Z,12.90
2019-05-11T12:58:33.915Z,13.13
2019-05-11T13:01:01.216Z,12.00
2019-05-11T13:03:28.006Z,10.23
2019-05-11T13:05:54.547Z,10.90
2019-05-11T13:08:21.242Z,11.43
2019-05-11T13:10:48.023Z,11.40
2019-05-11T13:13:14.610Z,12.87
2019-05-11T13:15:41.121Z,13.03
2019-05-11T13:18:08.649Z,11.80
2019-05-11T13:20:35.151Z,12.43
2019-05-11T13:23:01.653Z,10.47
2019-05-11T13:25:28.371Z,10.57
2019-05-11T13:27:54.936Z,10.83
2019-05-11T13:30:21.553Z,11.03
2019-05-11T13:32:48.970Z,11.57
2019-05-11T13:35:17.809Z,11.97
2019-05-11T13:37:47.873Z,12.30
2019-05-11T13:40:14.132Z,12.43
2019-05-11T13:42:40.860Z,10.80
2019-05-11T13:45:08.546Z,12.13
2019-05-11T13:47:50.899Z,12.10
2019-05-11T13:50:04.141Z,11.83
2019-05-11T13:52:30.616Z,13.27
2019-05-11T13:54:58.558Z,12.73
2019-05-11T13:57:25.091Z,11.20
2019-05-11T13:59:51.564Z,11.67
2019-05-11T14:02:18.195Z,10.67
2019-05-11T14:04:48.568Z,11.47
2019-05-11T14:07:15.582Z,12.20
2019-05-11T14:09:43.138Z,10.77
2019-05-11T14:12:09.599Z,11.57
2019-05-11T14:14:37.771Z,11.87
2019-05-11T14:17:04.402Z,11.83
2019-05-11T14:19:30.914Z,12.20
2019-05-11T14:21:58.228Z,11.80
2019-05-11T14:24:24.781Z,13.83
2019-05-11T14:26:51.519Z,17.37
2019-05-11T14:29:18.054Z,12.50
2019-05-11T14:31:44.776Z,10.20
2019-05-11T14:34:11.471Z,11.67
2019-05-11T14:36:38.711Z,9.23
2019-05-11T14:39:08.478Z,7.27
2019-05-11T14:41:34.794Z,7.43
2019-05-11T14:44:02.666Z,10.17
2019-05-11T14:46:29.161Z,7.33
2019-05-11T14:48:59.937Z,7.53
2019-05-11T14:51:28.202Z,7.33
2019-05-11T14:53:59.575Z,7.17
2019-05-11T14:56:27.898Z,8.37
2019-05-11T14:58:54.760Z,7.97
2019-05-11T15:01:21.490Z,8.53
2019-05-11T15:03:48.742Z,8.80
2019-05-11T15:06:18.601Z,8.97
2019-05-11T15:08:47.910Z,7.30
2019-05-11T15:11:14.606Z,8.07
2019-05-11T15:13:41.131Z,7.50
2019-05-11T15:16:08.214Z,6.13
2019-05-11T15:18:38.891Z,6.70
2019-05-11T15:21:03.325Z,7.10
2019-05-11T15:23:29.786Z,6.67
2019-05-11T15:25:58.539Z,6.50
2019-05-11T15:28:24.846Z,6.30
2019-05-11T15:30:51.390Z,9.80
2019-05-11T15:33:18.449Z,6.73
2019-05-11T15:35:45.011Z,5.47
2019-05-11T15:38:12.562Z,6.50
2019-05-11T15:40:39.313Z,7.00
2019-05-11T15:43:05.850Z,5.70
2019-05-11T15:45:32.790Z,5.90
2019-05-11T15:47:59.446Z,6.00
2019-05-11T15:50:25.975Z,5.93
2019-05-11T15:52:53.659Z,5.97
2019-05-11T15:55:20.221Z,5.90
2019-05-11T15:57:48.299Z,7.27
2019-05-11T16:00:15.412Z,6.00
2019-05-11T16:02:42.081Z,6.27
2019-05-11T16:05:08.953Z,6.47
2019-05-11T16:07:35.566Z,6.20
2019-05-11T16:10:02.281Z,6.80
2019-05-11T16:12:28.851Z,7.23
2019-05-11T16:14:55.336Z,7.93
2019-05-11T16:17:22.931Z,7.30
2019-05-11T16:19:49.433Z,8.23
2019-05-11T16:22:20.403Z,6.37
2019-05-11T16:24:45.186Z,5.83
2019-05-11T16:27:11.814Z,7.73
2019-05-11T16:29:39.827Z,6.97
2019-05-11T16:32:08.374Z,7.50
2019-05-11T16:34:38.179Z,6.23
2019-05-11T16:37:07.775Z,7.77
2019-05-11T16:39:33.500Z,7.10
2019-05-11T16:41:59.965Z,7.70
2019-05-11T16:44:26.471Z,8.33
2019-05-11T16:46:53.156Z,8.87
2019-05-11T16:49:28.513Z,9.77
2019-05-11T16:51:49.048Z,9.77
2019-05-11T16:54:15.506Z,8.93
2019-05-11T16:56:42.069Z,8.93
2019-05-11T16:59:08.561Z,10.33
2019-05-11T17:01:37.712Z,10.90
2019-05-11T17:04:03.905Z,9.30
2019-05-11T17:06:31.877Z,9.30
2019-05-11T17:08:58.859Z,10.13
2019-05-11T17:11:25.525Z,9.77
2019-05-11T17:13:52.032Z,10.70
2019-05-11T17:16:19.588Z,10.27
2019-05-11T17:18:48.339Z,9.83
2019-05-11T17:21:14.684Z,9.17
2019-05-11T17:23:41.163Z,9.83
2019-05-11T17:26:08.769Z,8.40
2019-05-11T17:28:35.429Z,8.73
2019-05-11T17:31:03.080Z,8.23
2019-05-11T17:33:29.653Z,9.07
2019-05-11T17:35:58.197Z,8.43
2019-05-11T17:38:24.510Z,7.83
2019-05-11T17:40:50.986Z,9.00
2019-05-11T17:43:18.174Z,9.53
2019-05-11T17:45:44.752Z,9.90
2019-05-11T17:48:11.325Z,8.77
2019-05-11T17:50:38.317Z,7.60
2019-05-11T17:53:04.963Z,7.10
2019-05-11T17:55:31.435Z,5.90
2019-05-11T17:57:58.333Z,4.97
2019-05-11T18:00:25.282Z,6.00
2019-05-11T18:02:52.042Z,6.47
2019-05-11T18:05:18.604Z,6.87
2019-05-11T18:07:45.126Z,7.70
2019-05-11T18:10:11.583Z,6.53
2019-05-11T18:12:39.060Z,7.23
2019-05-11T18:15:08.189Z,7.10
2019-05-11T18:17:34.862Z,7.47
2019-05-11T18:20:13.860Z,6.53
2019-05-11T18:22:30.864Z,7.47
2019-05-11T18:24:58.102Z,8.23
2019-05-11T18:27:24.938Z,7.80
2019-05-11T18:29:52.498Z,8.17
2019-05-11T18:32:20.014Z,8.93
2019-05-11T18:34:48.447Z,8.33
2019-05-11T18:37:15.196Z,9.27
2019-05-11T18:39:43.562Z,8.97
2019-05-11T18:42:10.074Z,8.37
2019-05-11T18:44:37.969Z,7.83
2019-05-11T18:47:04.623Z,9.07
2019-05-11T18:49:31.075Z,8.17
2019-05-11T18:51:58.667Z,7.93
2019-05-11T18:54:25.116Z,6.63
2019-05-11T18:56:51.573Z,6.73
2019-05-11T18:59:19.516Z,6.67
2019-05-11T19:01:48.374Z,6.70
2019-05-11T19:04:14.681Z,6.57
2019-05-11T19:06:41.139Z,5.10
2019-05-11T19:09:07.642Z,5.30
2019-05-11T19:11:34.182Z,5.70
2019-05-11T19:14:00.853Z,4.97
2019-05-11T19:16:28.826Z,4.90
2019-05-11T19:18:55.454Z,5.47
2019-05-11T19:21:21.959Z,5.13
2019-05-11T19:23:48.842Z,5.47
2019-05-11T19:26:17.688Z,5.13
2019-05-11T19:28:44.241Z,5.43
2019-05-11T19:31:11.364Z,5.67
2019-05-11T19:33:38.267Z,5.80
2019-05-11T19:36:04.824Z,6.10
2019-05-11T19:38:31.292Z,6.00
2019-05-11T19:40:58.785Z,6.23
2019-05-11T19:43:27.539Z,6.30
2019-05-11T19:45:53.870Z,6.23
2019-05-11T19:48:20.395Z,6.10
2019-05-11T19:51:00.925Z,5.97
2019-05-11T19:53:15.292Z,4.87
2019-05-11T19:55:41.770Z,4.40
2019-05-11T19:58:08.217Z,4.87
2019-05-11T20:00:34.724Z,4.17
2019-05-11T20:03:01.168Z,4.07
2019-05-11T20:05:28.889Z,3.70
2019-05-11T20:07:55.710Z,3.80
2019-05-11T20:10:22.411Z,3.73
2019-05-11T20:12:48.941Z,4.60
2019-05-11T20:15:15.712Z,4.20
2019-05-11T20:17:42.163Z,4.60
2019-05-11T20:20:09.066Z,4.63
2019-05-11T20:22:35.679Z,4.10
2019-05-11T20:25:02.594Z,4.53
2019-05-11T20:27:30.241Z,4.40
2019-05-11T20:30:04.019Z,4.76
2019-05-11T20:32:31.616Z,5.37
2019-05-11T20:34:59.197Z,4.37
2019-05-11T20:37:25.896Z,4.37
2019-05-11T20:39:52.642Z,4.33
2019-05-11T20:42:19.141Z,4.37
2019-05-11T20:44:47.618Z,4.53
2019-05-11T20:47:14.126Z,4.33
2019-05-11T20:49:40.789Z,4.67
2019-05-11T20:52:08.674Z,4.47
2019-05-11T20:54:38.592Z,4.60
2019-05-11T20:57:04.953Z,4.67
2019-05-11T20:59:31.477Z,5.07
2019-05-11T21:01:58.585Z,4.80
2019-05-11T21:04:28.036Z,4.87
2019-05-11T21:06:53.765Z,4.87
2019-05-11T21:09:21.562Z,5.33
2019-05-11T21:11:50.438Z,4.93
2019-05-11T21:14:18.228Z,4.73
2019-05-11T21:16:44.882Z,5.03
2019-05-11T21:19:11.386Z,5.00
2019-05-11T21:21:49.447Z,5.57
2019-05-11T21:24:08.383Z,5.73
2019-05-11T21:26:34.715Z,5.07
2019-05-11T21:29:01.215Z,4.80
2019-05-11T21:34:00.162Z,4.83
2019-05-11T21:36:28.376Z,4.73
2019-05-11T21:38:55.043Z,5.50
2019-05-11T21:41:21.512Z,5.27
2019-05-11T21:43:48.382Z,5.30
2019-05-11T21:46:15.100Z,5.20
2019-05-11T21:48:41.544Z,5.57
2019-05-11T21:51:08.667Z,5.40
2019-05-11T21:53:35.311Z,5.67
2019-05-11T21:56:02.995Z,5.80
2019-05-11T21:58:30.001Z,5.70
2019-05-11T22:00:56.729Z,5.57
2019-05-11T22:03:23.188Z,3.93
2019-05-11T22:05:51.017Z,4.97
2019-05-11T22:08:17.983Z,5.03
2019-05-11T22:10:44.478Z,5.53
2019-05-11T22:13:10.932Z,4.90
2019-05-11T22:15:38.611Z,5.20
2019-05-11T22:18:05.333Z,4.30
2019-05-11T22:20:31.777Z,4.67
2019-05-11T22:22:58.508Z,3.73
2019-05-11T22:25:24.971Z,3.53
2019-05-11T22:27:51.548Z,3.50
2019-05-11T22:30:18.633Z,3.17
2019-05-11T22:32:47.670Z,3.13
2019-05-11T22:35:14.035Z,2.77
2019-05-11T22:37:40.584Z,2.47
2019-05-11T22:40:08.241Z,1.80
2019-05-11T22:42:35.106Z,2.20
2019-05-11T22:45:01.695Z,1.43
2019-05-11T22:47:28.477Z,1.97
2019-05-11T22:49:55.030Z,1.83
2019-05-11T22:52:33.068Z,1.87
2019-05-11T22:54:49.873Z,1.40
2019-05-11T22:57:16.415Z,1.40
2019-05-11T22:59:42.868Z,1.70
2019-05-11T23:02:10.808Z,1.13
2019-05-11T23:04:38.167Z,1.83
2019-05-11T23:07:04.837Z,1.53
2019-05-11T23:09:32.362Z,1.90
2019-05-11T23:12:01.153Z,1.80
2019-05-11T23:14:28.246Z,1.40
2019-05-11T23:16:55.960Z,1.70
2019-05-11T23:19:22.413Z,1.83
2019-05-11T23:21:48.903Z,1.53
2019-05-11T23:24:15.396Z,2.30
2019-05-11T23:26:41.902Z,1.10
2019-05-11T23:29:08.354Z,1.60
2019-05-11T23:31:34.898Z,2.23
2019-05-11T23:34:01.344Z,2.23
2019-05-11T23:36:28.296Z,2.40
2019-05-11T23:38:54.994Z,2.00
2019-05-11T23:41:24.672Z,1.73
2019-05-11T23:43:49.908Z,1.30
2019-05-11T23:46:17.592Z,1.67
2019-05-11T23:48:44.252Z,1.73
2019-05-11T23:51:10.697Z,1.73
2019-05-11T23:53:38.752Z,1.73
2019-05-11T23:56:05.358Z,2.10
2019-05-11T23:58:32.338Z,1.90
